sensor_id;sensor_type;location;lat;lon;timestamp;pressure;altitude;pressure_sealevel;temperature;humidity
6942;BME280;3510;43.200;27.920;2023-06-26T00:02:23;100472.91;;;28.11;55.95
6942;BME280;3510;43.200;27.920;2023-06-26T00:04:51;100477.34;;;28.31;55.50
6942;BME280;3510;43.200;27.920;2023-06-26T00:07:18;100477.41;;;28.40;55.18
6942;BME280;3510;43.200;27.920;2023-06-26T00:09:45;100479.25;;;28.56;54.37
6942;BME280;3510;43.200;27.920;2023-06-26T00:12:12;100482.97;;;29.18;52.65
6942;BME280;3510;43.200;27.920;2023-06-26T00:14:38;100482.16;;;29.27;52.80
6942;BME280;3510;43.200;27.920;2023-06-26T00:17:05;100490.00;;;29.60;51.94
6942;BME280;3510;43.200;27.920;2023-06-26T00:19:31;100480.50;;;29.90;50.85
6942;BME280;3510;43.200;27.920;2023-06-26T00:21:59;100490.78;;;29.29;52.39
6942;BME280;3510;43.200;27.920;2023-06-26T00:24:26;100491.75;;;29.69;51.19
6942;BME280;3510;43.200;27.920;2023-06-26T00:26:52;100490.00;;;29.65;51.44
6942;BME280;3510;43.200;27.920;2023-06-26T00:29:19;100483.34;;;28.28;54.84
6942;BME280;3510;43.200;27.920;2023-06-26T00:31:45;100481.97;;;28.87;53.62
6942;BME280;3510;43.200;27.920;2023-06-26T00:34:12;100484.56;;;28.88;53.17
6942;BME280;3510;43.200;27.920;2023-06-26T00:36:40;100488.91;;;28.91;53.39
6942;BME280;3510;43.200;27.920;2023-06-26T00:39:09;100485.53;;;29.04;53.01
6942;BME280;3510;43.200;27.920;2023-06-26T00:41:36;100489.09;;;29.37;52.01
6942;BME280;3510;43.200;27.920;2023-06-26T00:44:03;100480.19;;;28.70;53.81
6942;BME280;3510;43.200;27.920;2023-06-26T00:46:30;100470.00;;;29.16;52.90
6942;BME280;3510;43.200;27.920;2023-06-26T00:48:57;100465.75;;;29.52;52.10
6942;BME280;3510;43.200;27.920;2023-06-26T00:51:24;100458.88;;;29.88;50.85
6942;BME280;3510;43.200;27.920;2023-06-26T00:53:51;100418.22;;;29.62;51.02
6942;BME280;3510;43.200;27.920;2023-06-26T00:56:19;100457.16;;;29.67;51.34
6942;BME280;3510;43.200;27.920;2023-06-26T00:58:46;100465.72;;;29.29;52.04
6942;BME280;3510;43.200;27.920;2023-06-26T01:01:13;100468.28;;;29.15;52.51
6942;BME280;3510;43.200;27.920;2023-06-26T01:03:42;100461.41;;;29.36;52.11
6942;BME280;3510;43.200;27.920;2023-06-26T01:06:09;100467.47;;;29.30;52.44
6942;BME280;3510;43.200;27.920;2023-06-26T01:08:38;100453.66;;;29.50;51.66
6942;BME280;3510;43.200;27.920;2023-06-26T01:11:05;100457.97;;;29.43;52.01
6942;BME280;3510;43.200;27.920;2023-06-26T01:13:47;100456.22;;;29.42;52.18
6942;BME280;3510;43.200;27.920;2023-06-26T01:16:28;100467.31;;;28.89;53.33
6942;BME280;3510;43.200;27.920;2023-06-26T01:19:10;100458.84;;;29.42;52.05
6942;BME280;3510;43.200;27.920;2023-06-26T01:21:40;100451.06;;;29.85;50.78
6942;BME280;3510;43.200;27.920;2023-06-26T01:24:09;100454.53;;;30.21;50.13
6942;BME280;3510;43.200;27.920;2023-06-26T01:26:41;100451.09;;;29.76;51.02
6942;BME280;3510;43.200;27.920;2023-06-26T01:29:09;100469.19;;;29.27;52.61
6942;BME280;3510;43.200;27.920;2023-06-26T01:31:49;100459.69;;;29.47;51.84
6942;BME280;3510;43.200;27.920;2023-06-26T01:34:17;100464.94;;;29.75;50.92
6942;BME280;3510;43.200;27.920;2023-06-26T01:36:43;100458.88;;;29.62;51.67
6942;BME280;3510;43.200;27.920;2023-06-26T01:39:12;100451.97;;;29.75;51.22
6942;BME280;3510;43.200;27.920;2023-06-26T01:41:38;100453.69;;;29.83;50.73
6942;BME280;3510;43.200;27.920;2023-06-26T01:44:11;100457.16;;;29.59;51.80
6942;BME280;3510;43.200;27.920;2023-06-26T01:46:40;100456.28;;;29.60;51.87
6942;BME280;3510;43.200;27.920;2023-06-26T01:49:09;100457.13;;;30.27;49.95
6942;BME280;3510;43.200;27.920;2023-06-26T01:51:39;100451.09;;;29.94;50.50
6942;BME280;3510;43.200;27.920;2023-06-26T01:54:08;100468.38;;;29.74;51.32
6942;BME280;3510;43.200;27.920;2023-06-26T01:56:36;100463.19;;;29.66;51.16
6942;BME280;3510;43.200;27.920;2023-06-26T01:59:05;100466.63;;;30.31;50.07
6942;BME280;3510;43.200;27.920;2023-06-26T02:01:33;100462.34;;;29.98;50.27
6942;BME280;3510;43.200;27.920;2023-06-26T02:03:59;100458.91;;;29.82;50.83
6942;BME280;3510;43.200;27.920;2023-06-26T02:06:26;100468.28;;;29.12;52.63
6942;BME280;3510;43.200;27.920;2023-06-26T02:08:52;100464.72;;;28.92;52.96
6942;BME280;3510;43.200;27.920;2023-06-26T02:11:21;100461.38;;;29.13;52.60
6942;BME280;3510;43.200;27.920;2023-06-26T02:13:51;100463.72;;;28.62;53.84
6942;BME280;3510;43.200;27.920;2023-06-26T02:19:14;100458.63;;;28.75;53.53
6942;BME280;3510;43.200;27.920;2023-06-26T02:21:46;100455.13;;;28.68;54.07
6942;BME280;3510;43.200;27.920;2023-06-26T02:24:13;100452.56;;;28.71;53.77
6942;BME280;3510;43.200;27.920;2023-06-26T02:26:40;100454.38;;;28.97;53.36
6942;BME280;3510;43.200;27.920;2023-06-26T02:29:07;100445.84;;;29.30;52.46
6942;BME280;3510;43.200;27.920;2023-06-26T02:31:33;100446.78;;;29.90;50.75
6942;BME280;3510;43.200;27.920;2023-06-26T02:34:00;100452.81;;;30.01;50.32
6942;BME280;3510;43.200;27.920;2023-06-26T02:36:27;100451.09;;;29.62;51.25
6942;BME280;3510;43.200;27.920;2023-06-26T02:38:54;100447.41;;;28.74;53.42
6942;BME280;3510;43.200;27.920;2023-06-26T02:41:20;100447.38;;;28.76;53.85
6942;BME280;3510;43.200;27.920;2023-06-26T02:43:47;100444.97;;;29.29;52.38
6942;BME280;3510;43.200;27.920;2023-06-26T02:46:13;100449.31;;;29.35;52.14
6942;BME280;3510;43.200;27.920;2023-06-26T02:48:40;100450.19;;;29.57;52.27
6942;BME280;3510;43.200;27.920;2023-06-26T02:51:07;100446.75;;;29.99;50.65
6942;BME280;3510;43.200;27.920;2023-06-26T02:53:36;100440.69;;;29.88;51.11
6942;BME280;3510;43.200;27.920;2023-06-26T02:56:02;100451.94;;;30.01;51.18
6942;BME280;3510;43.200;27.920;2023-06-26T02:58:29;100462.22;;;29.18;53.34
6942;BME280;3510;43.200;27.920;2023-06-26T03:00:55;100450.19;;;29.38;52.32
6942;BME280;3510;43.200;27.920;2023-06-26T03:03:22;100456.06;;;28.87;54.22
6942;BME280;3510;43.200;27.920;2023-06-26T03:05:48;100460.56;;;29.37;52.91
6942;BME280;3510;43.200;27.920;2023-06-26T03:08:15;100446.75;;;29.49;52.10
6942;BME280;3510;43.200;27.920;2023-06-26T03:10:44;100448.50;;;29.80;51.38
6942;BME280;3510;43.200;27.920;2023-06-26T03:13:12;100446.72;;;29.38;52.71
6942;BME280;3510;43.200;27.920;2023-06-26T03:15:38;100442.44;;;29.52;52.50
6942;BME280;3510;43.200;27.920;2023-06-26T03:18:05;100452.84;;;29.60;51.99
6942;BME280;3510;43.200;27.920;2023-06-26T03:20:32;100445.03;;;29.94;50.69
6942;BME280;3510;43.200;27.920;2023-06-26T03:22:58;100438.91;;;30.48;49.65
6942;BME280;3510;43.200;27.920;2023-06-26T03:25:25;100441.56;;;30.08;50.64
6942;BME280;3510;43.200;27.920;2023-06-26T03:27:52;100439.75;;;30.44;49.86
6942;BME280;3510;43.200;27.920;2023-06-26T03:30:19;100447.41;;;30.90;48.82
6942;BME280;3510;43.200;27.920;2023-06-26T03:32:45;100448.91;;;31.32;47.42
6942;BME280;3510;43.200;27.920;2023-06-26T03:35:12;100442.59;;;32.55;45.42
6942;BME280;3510;43.200;27.920;2023-06-26T03:37:39;100447.88;;;32.47;45.26
6942;BME280;3510;43.200;27.920;2023-06-26T03:40:06;100448.88;;;33.08;43.58
6942;BME280;3510;43.200;27.920;2023-06-26T03:42:33;100448.50;;;31.89;46.07
6942;BME280;3510;43.200;27.920;2023-06-26T03:45:01;100456.56;;;31.51;47.22
6942;BME280;3510;43.200;27.920;2023-06-26T03:47:27;100452.28;;;31.48;47.23
6942;BME280;3510;43.200;27.920;2023-06-26T03:49:54;100445.50;;;31.20;48.06
6942;BME280;3510;43.200;27.920;2023-06-26T03:52:20;100455.94;;;31.15;47.97
6942;BME280;3510;43.200;27.920;2023-06-26T03:54:47;100452.56;;;30.92;48.25
6942;BME280;3510;43.200;27.920;2023-06-26T03:57:14;100455.81;;;31.29;47.56
6942;BME280;3510;43.200;27.920;2023-06-26T03:59:40;100448.50;;;31.89;46.56
6942;BME280;3510;43.200;27.920;2023-06-26T04:02:08;100450.59;;;32.37;45.33
6942;BME280;3510;43.200;27.920;2023-06-26T04:04:34;100452.91;;;32.64;44.94
6942;BME280;3510;43.200;27.920;2023-06-26T04:07:07;100451.53;;;32.29;45.32
6942;BME280;3510;43.200;27.920;2023-06-26T04:09:33;100448.72;;;32.51;44.83
6942;BME280;3510;43.200;27.920;2023-06-26T04:12:00;100449.56;;;31.61;46.56
6942;BME280;3510;43.200;27.920;2023-06-26T04:14:26;100452.34;;;31.36;47.17
6942;BME280;3510;43.200;27.920;2023-06-26T04:16:53;100447.50;;;30.56;48.95
6942;BME280;3510;43.200;27.920;2023-06-26T04:19:21;100439.78;;;30.38;49.08
6942;BME280;3510;43.200;27.920;2023-06-26T04:21:47;100432.06;;;29.83;50.33
6942;BME280;3510;43.200;27.920;2023-06-26T04:24:14;100446.47;;;31.02;48.27
6942;BME280;3510;43.200;27.920;2023-06-26T04:26:40;100443.28;;;29.85;50.36
6942;BME280;3510;43.200;27.920;2023-06-26T04:29:07;100438.06;;;30.37;49.46
6942;BME280;3510;43.200;27.920;2023-06-26T04:31:47;100456.25;;;30.25;49.74
6942;BME280;3510;43.200;27.920;2023-06-26T04:34:14;100441.53;;;29.55;51.31
6942;BME280;3510;43.200;27.920;2023-06-26T04:36:42;100454.53;;;29.49;51.38
6942;BME280;3510;43.200;27.920;2023-06-26T04:39:13;100440.69;;;30.17;49.72
6942;BME280;3510;43.200;27.920;2023-06-26T04:41:39;100445.00;;;30.03;50.69
6942;BME280;3510;43.200;27.920;2023-06-26T04:44:06;100443.91;;;30.97;47.99
6942;BME280;3510;43.200;27.920;2023-06-26T04:46:32;100444.81;;;30.87;47.85
6942;BME280;3510;43.200;27.920;2023-06-26T04:48:59;100449.34;;;30.30;48.74
6942;BME280;3510;43.200;27.920;2023-06-26T04:51:28;100447.63;;;30.17;49.42
6942;BME280;3510;43.200;27.920;2023-06-26T04:53:56;100453.63;;;30.11;50.10
6942;BME280;3510;43.200;27.920;2023-06-26T04:56:23;100459.69;;;29.44;51.41
6942;BME280;3510;43.200;27.920;2023-06-26T04:58:49;100477.91;;;29.87;50.40
6942;BME280;3510;43.200;27.920;2023-06-26T05:01:16;100449.38;;;29.93;49.96
6942;BME280;3510;43.200;27.920;2023-06-26T05:03:43;100460.59;;;29.92;50.01
6942;BME280;3510;43.200;27.920;2023-06-26T05:06:10;100464.84;;;29.32;51.61
6942;BME280;3510;43.200;27.920;2023-06-26T05:08:37;100425.13;;;29.47;50.78
6942;BME280;3510;43.200;27.920;2023-06-26T05:11:05;100452.81;;;29.61;50.58
6942;BME280;3510;43.200;27.920;2023-06-26T05:13:31;100448.53;;;29.67;50.36
6942;BME280;3510;43.200;27.920;2023-06-26T05:15:58;100464.94;;;29.79;50.13
6942;BME280;3510;43.200;27.920;2023-06-26T05:18:25;100462.34;;;29.59;50.46
6942;BME280;3510;43.200;27.920;2023-06-26T05:20:52;100451.91;;;30.14;49.05
6942;BME280;3510;43.200;27.920;2023-06-26T05:23:18;100454.53;;;30.24;48.71
6942;BME280;3510;43.200;27.920;2023-06-26T05:25:46;100460.50;;;30.55;48.13
6942;BME280;3510;43.200;27.920;2023-06-26T05:28:19;100463.16;;;30.29;48.50
6942;BME280;3510;43.200;27.920;2023-06-26T05:30:47;100460.53;;;30.44;48.38
6942;BME280;3510;43.200;27.920;2023-06-26T05:33:14;100464.91;;;29.99;49.05
6942;BME280;3510;43.200;27.920;2023-06-26T05:35:41;100471.00;;;30.20;48.85
6942;BME280;3510;43.200;27.920;2023-06-26T05:38:09;100459.72;;;30.21;48.75
6942;BME280;3510;43.200;27.920;2023-06-26T05:40:36;100470.03;;;30.50;48.44
6942;BME280;3510;43.200;27.920;2023-06-26T05:43:03;100477.03;;;30.09;48.93
6942;BME280;3510;43.200;27.920;2023-06-26T05:45:44;100477.03;;;30.37;48.53
6942;BME280;3510;43.200;27.920;2023-06-26T05:48:11;100482.13;;;30.71;47.88
6942;BME280;3510;43.200;27.920;2023-06-26T05:50:37;100497.66;;;30.74;48.21
6942;BME280;3510;43.200;27.920;2023-06-26T05:53:07;100482.97;;;30.68;48.01
6942;BME280;3510;43.200;27.920;2023-06-26T05:55:34;100483.94;;;30.10;48.49
6942;BME280;3510;43.200;27.920;2023-06-26T05:58:04;100484.81;;;30.35;48.43
6942;BME280;3510;43.200;27.920;2023-06-26T06:00:42;100485.66;;;30.39;48.72
6942;BME280;3510;43.200;27.920;2023-06-26T06:03:10;100490.72;;;30.88;47.65
6942;BME280;3510;43.200;27.920;2023-06-26T06:05:38;100499.53;;;29.68;50.39
6942;BME280;3510;43.200;27.920;2023-06-26T06:08:04;100496.94;;;30.03;49.25
6942;BME280;3510;43.200;27.920;2023-06-26T06:10:31;100495.19;;;30.37;48.45
6942;BME280;3510;43.200;27.920;2023-06-26T06:12:59;100496.94;;;29.72;50.47
6942;BME280;3510;43.200;27.920;2023-06-26T06:15:40;100497.75;;;29.48;50.82
6942;BME280;3510;43.200;27.920;2023-06-26T06:18:11;100483.09;;;30.05;49.13
6942;BME280;3510;43.200;27.920;2023-06-26T06:20:38;100503.84;;;30.08;48.65
6942;BME280;3510;43.200;27.920;2023-06-26T06:23:04;100491.75;;;30.06;48.97
6942;BME280;3510;43.200;27.920;2023-06-26T06:25:32;100515.09;;;29.61;49.68
6942;BME280;3510;43.200;27.920;2023-06-26T06:27:59;100492.56;;;29.56;49.66
6942;BME280;3510;43.200;27.920;2023-06-26T06:30:41;100492.38;;;31.09;47.03
6942;BME280;3510;43.200;27.920;2023-06-26T06:33:07;100509.91;;;30.38;48.04
6942;BME280;3510;43.200;27.920;2023-06-26T06:38:20;100501.72;;;31.41;45.53
6942;BME280;3510;43.200;27.920;2023-06-26T06:41:00;100519.28;;;30.97;46.64
6942;BME280;3510;43.200;27.920;2023-06-26T06:43:40;100505.19;;;31.44;45.41
6942;BME280;3510;43.200;27.920;2023-06-26T06:46:09;100525.25;;;31.16;44.92
6942;BME280;3510;43.200;27.920;2023-06-26T06:48:37;100505.09;;;31.58;44.57
6942;BME280;3510;43.200;27.920;2023-06-26T06:51:03;100513.03;;;31.29;45.74
6942;BME280;3510;43.200;27.920;2023-06-26T06:53:31;100509.00;;;30.51;46.79
6942;BME280;3510;43.200;27.920;2023-06-26T06:55:59;100517.69;;;30.29;47.19
6942;BME280;3510;43.200;27.920;2023-06-26T06:58:35;100516.69;;;30.91;46.09
6942;BME280;3510;43.200;27.920;2023-06-26T07:01:02;100521.63;;;31.49;44.28
6942;BME280;3510;43.200;27.920;2023-06-26T07:03:29;100539.00;;;31.44;43.57
6942;BME280;3510;43.200;27.920;2023-06-26T07:05:57;100517.63;;;30.76;45.57
6942;BME280;3510;43.200;27.920;2023-06-26T07:08:23;100525.31;;;31.02;44.80
6942;BME280;3510;43.200;27.920;2023-06-26T07:10:51;100527.47;;;31.80;43.04
6942;BME280;3510;43.200;27.920;2023-06-26T07:13:18;100515.09;;;32.13;43.18
6942;BME280;3510;43.200;27.920;2023-06-26T07:15:44;100519.91;;;32.56;42.11
6942;BME280;3510;43.200;27.920;2023-06-26T07:18:13;100538.59;;;32.93;41.46
6942;BME280;3510;43.200;27.920;2023-06-26T07:20:39;100524.84;;;31.91;43.08
6942;BME280;3510;43.200;27.920;2023-06-26T07:23:06;100521.59;;;31.57;43.72
6942;BME280;3510;43.200;27.920;2023-06-26T07:25:32;100527.94;;;31.04;44.76
6942;BME280;3510;43.200;27.920;2023-06-26T07:28:00;100531.75;;;31.94;43.26
6942;BME280;3510;43.200;27.920;2023-06-26T07:30:27;100528.88;;;30.71;45.51
6942;BME280;3510;43.200;27.920;2023-06-26T07:32:53;100509.88;;;32.16;42.63
6942;BME280;3510;43.200;27.920;2023-06-26T07:35:20;100526.19;;;33.74;39.60
6942;BME280;3510;43.200;27.920;2023-06-26T07:40:22;100527.97;;;33.10;40.38
6942;BME280;3510;43.200;27.920;2023-06-26T07:42:50;100515.25;;;32.81;40.71
6942;BME280;3510;43.200;27.920;2023-06-26T07:45:17;100520.66;;;32.66;41.25
6942;BME280;3510;43.200;27.920;2023-06-26T07:47:45;100525.53;;;32.10;42.14
6942;BME280;3510;43.200;27.920;2023-06-26T07:50:12;100522.63;;;32.45;41.31
6942;BME280;3510;43.200;27.920;2023-06-26T07:52:41;100522.78;;;32.25;42.27
6942;BME280;3510;43.200;27.920;2023-06-26T07:55:07;100522.94;;;32.12;41.46
6942;BME280;3510;43.200;27.920;2023-06-26T07:57:34;100507.19;;;32.24;41.79
6942;BME280;3510;43.200;27.920;2023-06-26T08:00:01;100514.72;;;31.48;42.85
6942;BME280;3510;43.200;27.920;2023-06-26T08:02:33;100515.31;;;31.84;42.26
6942;BME280;3510;43.200;27.920;2023-06-26T08:04:59;100510.44;;;31.38;42.99
6942;BME280;3510;43.200;27.920;2023-06-26T08:07:25;100513.38;;;32.11;41.74
6942;BME280;3510;43.200;27.920;2023-06-26T08:09:52;100514.34;;;33.53;39.58
6942;BME280;3510;43.200;27.920;2023-06-26T08:12:19;100522.81;;;33.69;38.40
6942;BME280;3510;43.200;27.920;2023-06-26T08:14:45;100528.69;;;32.47;40.86
6942;BME280;3510;43.200;27.920;2023-06-26T08:17:12;100512.81;;;32.69;40.40
6942;BME280;3510;43.200;27.920;2023-06-26T08:19:40;100511.91;;;32.70;40.29
6942;BME280;3510;43.200;27.920;2023-06-26T08:22:06;100547.56;;;32.69;40.36
6942;BME280;3510;43.200;27.920;2023-06-26T08:24:33;100521.41;;;32.77;40.34
6942;BME280;3510;43.200;27.920;2023-06-26T08:27:00;100533.06;;;33.19;39.42
6942;BME280;3510;43.200;27.920;2023-06-26T08:29:26;100532.25;;;32.36;40.80
6942;BME280;3510;43.200;27.920;2023-06-26T08:31:53;100523.84;;;32.91;39.77
6942;BME280;3510;43.200;27.920;2023-06-26T08:34:19;100534.22;;;32.98;39.56
6942;BME280;3510;43.200;27.920;2023-06-26T08:36:48;100541.22;;;32.95;39.86
6942;BME280;3510;43.200;27.920;2023-06-26T08:39:16;100523.75;;;33.00;39.90
6942;BME280;3510;43.200;27.920;2023-06-26T08:41:44;100546.41;;;32.93;39.73
6942;BME280;3510;43.200;27.920;2023-06-26T08:44:10;100545.69;;;33.53;38.70
6942;BME280;3510;43.200;27.920;2023-06-26T08:46:37;100539.53;;;32.89;39.70
6942;BME280;3510;43.200;27.920;2023-06-26T08:49:05;100542.00;;;33.00;39.58
6942;BME280;3510;43.200;27.920;2023-06-26T08:51:38;100550.13;;;33.46;38.12
6942;BME280;3510;43.200;27.920;2023-06-26T08:54:08;100536.88;;;32.08;39.20
6942;BME280;3510;43.200;27.920;2023-06-26T08:56:39;100542.75;;;33.10;38.30
6942;BME280;3510;43.200;27.920;2023-06-26T08:59:07;100529.31;;;33.39;38.55
6942;BME280;3510;43.200;27.920;2023-06-26T09:01:35;100542.69;;;33.16;38.31
6942;BME280;3510;43.200;27.920;2023-06-26T09:04:02;100551.81;;;33.51;37.87
6942;BME280;3510;43.200;27.920;2023-06-26T09:06:29;100533.31;;;32.99;38.55
6942;BME280;3510;43.200;27.920;2023-06-26T09:08:58;100532.34;;;33.71;37.72
6942;BME280;3510;43.200;27.920;2023-06-26T09:11:26;100558.81;;;32.73;38.08
6942;BME280;3510;43.200;27.920;2023-06-26T09:13:53;100552.28;;;33.15;37.68
6942;BME280;3510;43.200;27.920;2023-06-26T09:16:24;100536.34;;;33.35;37.15
6942;BME280;3510;43.200;27.920;2023-06-26T09:18:51;100529.94;;;33.58;37.31
6942;BME280;3510;43.200;27.920;2023-06-26T09:21:21;100540.88;;;33.81;36.90
6942;BME280;3510;43.200;27.920;2023-06-26T09:23:48;100537.84;;;33.53;36.88
6942;BME280;3510;43.200;27.920;2023-06-26T09:26:15;100551.78;;;34.08;36.46
6942;BME280;3510;43.200;27.920;2023-06-26T09:28:43;100545.66;;;34.12;36.06
6942;BME280;3510;43.200;27.920;2023-06-26T09:31:10;100555.72;;;33.79;36.12
6942;BME280;3510;43.200;27.920;2023-06-26T09:33:37;100556.34;;;33.95;36.14
6942;BME280;3510;43.200;27.920;2023-06-26T09:36:04;100557.59;;;33.69;36.46
6942;BME280;3510;43.200;27.920;2023-06-26T09:38:31;100550.66;;;33.04;37.19
6942;BME280;3510;43.200;27.920;2023-06-26T09:40:57;100557.25;;;33.92;36.38
6942;BME280;3510;43.200;27.920;2023-06-26T09:43:24;100534.91;;;34.75;35.02
6942;BME280;3510;43.200;27.920;2023-06-26T09:45:52;100527.50;;;34.54;34.89
6942;BME280;3510;43.200;27.920;2023-06-26T09:48:20;100546.75;;;33.95;36.19
6942;BME280;3510;43.200;27.920;2023-06-26T09:50:48;100537.53;;;34.75;35.02
6942;BME280;3510;43.200;27.920;2023-06-26T09:53:15;100541.88;;;35.18;35.08
6942;BME280;3510;43.200;27.920;2023-06-26T09:55:44;100529.03;;;35.46;34.14
6942;BME280;3510;43.200;27.920;2023-06-26T09:58:12;100533.84;;;35.27;34.56
6942;BME280;3510;43.200;27.920;2023-06-26T10:00:40;100530.97;;;34.54;34.79
6942;BME280;3510;43.200;27.920;2023-06-26T10:03:08;100537.59;;;35.54;33.84
6942;BME280;3510;43.200;27.920;2023-06-26T10:05:34;100511.81;;;35.75;32.08
6942;BME280;3510;43.200;27.920;2023-06-26T10:08:02;100531.91;;;36.10;32.05
6942;BME280;3510;43.200;27.920;2023-06-26T10:10:32;100522.75;;;35.16;33.80
6942;BME280;3510;43.200;27.920;2023-06-26T10:13:04;100509.09;;;35.40;33.19
6942;BME280;3510;43.200;27.920;2023-06-26T10:15:34;100508.28;;;35.37;32.59
6942;BME280;3510;43.200;27.920;2023-06-26T10:18:01;100507.59;;;34.45;34.05
6942;BME280;3510;43.200;27.920;2023-06-26T10:35:46;100520.09;;;35.18;33.00
6942;BME280;3510;43.200;27.920;2023-06-26T10:38:13;100510.13;;;35.33;32.66
6942;BME280;3510;43.200;27.920;2023-06-26T10:40:41;100517.84;;;35.01;33.16
6942;BME280;3510;43.200;27.920;2023-06-26T10:43:30;100517.13;;;35.33;32.94
6942;BME280;3510;43.200;27.920;2023-06-26T10:45:56;100513.75;;;35.28;33.09
6942;BME280;3510;43.200;27.920;2023-06-26T10:48:29;100498.16;;;34.36;32.99
6942;BME280;3510;43.200;27.920;2023-06-26T10:50:57;100454.66;;;34.34;33.17
6942;BME280;3510;43.200;27.920;2023-06-26T10:53:50;100461.78;;;35.11;31.77
6942;BME280;3510;43.200;27.920;2023-06-26T10:56:20;100473.19;;;36.17;30.81
6942;BME280;3510;43.200;27.920;2023-06-26T10:58:47;100511.88;;;35.72;30.61
6942;BME280;3510;43.200;27.920;2023-06-26T11:01:21;100510.59;;;35.88;30.21
6942;BME280;3510;43.200;27.920;2023-06-26T11:04:05;100475.69;;;35.52;30.15
6942;BME280;3510;43.200;27.920;2023-06-26T11:06:36;100513.72;;;34.87;31.68
6942;BME280;3510;43.200;27.920;2023-06-26T11:09:07;100463.50;;;34.70;31.52
6942;BME280;3510;43.200;27.920;2023-06-26T11:11:55;100495.56;;;35.60;30.52
6942;BME280;3510;43.200;27.920;2023-06-26T11:14:25;100475.28;;;35.69;30.57
6942;BME280;3510;43.200;27.920;2023-06-26T11:16:55;100458.69;;;34.49;31.97
6942;BME280;3510;43.200;27.920;2023-06-26T11:19:22;100509.44;;;35.27;30.60
6942;BME280;3510;43.200;27.920;2023-06-26T11:21:51;100451.78;;;34.46;31.23
6942;BME280;3510;43.200;27.920;2023-06-26T11:24:18;100435.78;;;35.03;29.34
6942;BME280;3510;43.200;27.920;2023-06-26T11:26:45;100482.31;;;36.02;29.39
6942;BME280;3510;43.200;27.920;2023-06-26T11:29:13;100479.06;;;37.45;28.02
6942;BME280;3510;43.200;27.920;2023-06-26T11:31:41;100476.59;;;35.85;30.53
6942;BME280;3510;43.200;27.920;2023-06-26T11:34:09;100470.88;;;34.51;33.06
6942;BME280;3510;43.200;27.920;2023-06-26T11:36:37;100465.53;;;34.57;32.74
6942;BME280;3510;43.200;27.920;2023-06-26T11:39:07;100431.19;;;34.29;32.43
6942;BME280;3510;43.200;27.920;2023-06-26T11:41:36;100431.00;;;34.40;32.74
6942;BME280;3510;43.200;27.920;2023-06-26T11:44:04;100486.31;;;34.63;32.72
6942;BME280;3510;43.200;27.920;2023-06-26T11:46:33;100415.66;;;35.07;31.06
6942;BME280;3510;43.200;27.920;2023-06-26T11:49:02;100424.91;;;36.24;29.30
6942;BME280;3510;43.200;27.920;2023-06-26T11:51:30;100505.16;;;37.22;34.40
6942;BME280;3510;43.200;27.920;2023-06-26T11:54:00;100494.19;;;37.92;35.68
6942;BME280;3510;43.200;27.920;2023-06-26T11:56:42;100495.38;;;37.55;36.45
6942;BME280;3510;43.200;27.920;2023-06-26T11:59:12;100487.63;;;36.32;38.70
6942;BME280;3510;43.200;27.920;2023-06-26T12:01:40;100508.25;;;36.77;38.34
6942;BME280;3510;43.200;27.920;2023-06-26T12:04:11;100515.47;;;37.56;36.40
6942;BME280;3510;43.200;27.920;2023-06-26T12:06:40;100516.25;;;38.38;35.85
6942;BME280;3510;43.200;27.920;2023-06-26T12:09:09;100508.06;;;37.69;36.96
6942;BME280;3510;43.200;27.920;2023-06-26T12:11:38;100438.94;;;36.54;38.70
6942;BME280;3510;43.200;27.920;2023-06-26T12:23:32;100415.63;;;35.08;39.80
6942;BME280;3510;43.200;27.920;2023-06-26T12:26:18;100520.34;;;36.17;38.81
6942;BME280;3510;43.200;27.920;2023-06-26T12:28:46;100517.47;;;36.28;38.53
6942;BME280;3510;43.200;27.920;2023-06-26T12:31:14;100523.03;;;36.48;38.29
6942;BME280;3510;43.200;27.920;2023-06-26T12:33:42;100402.91;;;35.30;38.77
6942;BME280;3510;43.200;27.920;2023-06-26T12:36:11;100484.72;;;36.74;37.71
6942;BME280;3510;43.200;27.920;2023-06-26T12:38:41;100469.84;;;37.04;36.61
6942;BME280;3510;43.200;27.920;2023-06-26T12:41:12;100484.97;;;36.01;37.99
6942;BME280;3510;43.200;27.920;2023-06-26T12:43:40;100517.47;;;35.92;38.40
6942;BME280;3510;43.200;27.920;2023-06-26T12:46:07;100519.34;;;34.69;40.55
6942;BME280;3510;43.200;27.920;2023-06-26T12:48:37;100510.53;;;34.73;40.80
6942;BME280;3510;43.200;27.920;2023-06-26T12:51:09;100502.06;;;35.05;39.64
6942;BME280;3510;43.200;27.920;2023-06-26T12:53:37;100495.44;;;34.42;40.20
6942;BME280;3510;43.200;27.920;2023-06-26T12:56:08;100545.13;;;36.05;38.59
6942;BME280;3510;43.200;27.920;2023-06-26T12:58:37;100432.22;;;34.22;40.74
6942;BME280;3510;43.200;27.920;2023-06-26T13:01:06;100499.75;;;35.30;39.91
6942;BME280;3510;43.200;27.920;2023-06-26T13:03:40;100497.75;;;35.77;39.40
6942;BME280;3510;43.200;27.920;2023-06-26T13:06:07;100555.84;;;36.63;38.60
6942;BME280;3510;43.200;27.920;2023-06-26T13:08:34;100534.78;;;36.33;38.38
6942;BME280;3510;43.200;27.920;2023-06-26T13:11:01;100544.69;;;36.22;38.72
6942;BME280;3510;43.200;27.920;2023-06-26T13:13:30;100460.94;;;35.83;37.75
6942;BME280;3510;43.200;27.920;2023-06-26T13:15:57;100552.53;;;36.88;36.75
6942;BME280;3510;43.200;27.920;2023-06-26T13:18:23;100501.63;;;36.95;36.73
6942;BME280;3510;43.200;27.920;2023-06-26T13:20:50;100557.16;;;37.68;36.15
6942;BME280;3510;43.200;27.920;2023-06-26T13:23:17;100520.34;;;37.68;34.86
6942;BME280;3510;43.200;27.920;2023-06-26T13:25:45;100553.75;;;37.07;36.31
6942;BME280;3510;43.200;27.920;2023-06-26T13:28:12;100554.53;;;37.39;36.10
6942;BME280;3510;43.200;27.920;2023-06-26T13:30:40;100497.56;;;38.45;34.58
6942;BME280;3510;43.200;27.920;2023-06-26T13:33:07;100468.41;;;36.64;36.50
6942;BME280;3510;43.200;27.920;2023-06-26T13:35:33;100517.25;;;37.27;36.20
6942;BME280;3510;43.200;27.920;2023-06-26T13:38:01;100507.25;;;38.92;34.11
6942;BME280;3510;43.200;27.920;2023-06-26T13:40:27;100560.38;;;38.80;34.03